Tabellarische Übersicht vom Dienstag, den 02.03.2021

Oder anderes Datum wählen:






max 14,9°C 95,0% 5,8°C 1031,0hPa 15,0°C 0,0km/h (0Bft) 0,0km/h 0° (N) ∑0,3l/m² 49,000klx ∑0,0min
min -0,9°C 52,0% -1,5°C 1030,4hPa -1,0°C 0,0km/h (0Bft) 0,0km/h 0° (N) ∑0,3l/m² 0,000klx ∑0,0min
Ø 1,9°C 90,0% 0,3°C 1030,7hPa 2,0°C 0,0km/h (0Bft) 0,0km/h 0° (N) ∑0,3l/m² 19,000klx ∑0,0min
Zeit Temperatur Luftfeuchte Taupunkt Luftdruck Windchill Windböen Windgeschwindigkeit Windrichtung Regen Helligkeit Regenzeit
11:35 14,9°C 51,8% 5,1°C 1030,6hPa 14,9°C 0,0km/h (0Bft) 0,0km/h 0,0l/m² 46,253klx 0,0min
11:30 14,5°C 52,7% 5,0°C 1030,5hPa 14,5°C 0,0km/h (0Bft) 0,0km/h 0,0l/m² 47,385klx 0,0min
11:25 14,5°C 53,1% 5,1°C 1030,6hPa 14,5°C 0,0km/h (0Bft) 0,0km/h 0,0l/m² 48,724klx 0,0min
11:20 14,3°C 54,1% 5,1°C 1030,6hPa 14,3°C 0,0km/h (0Bft) 0,0km/h 0,0l/m² 46,504klx 0,0min
11:15 14,1°C 55,4% 5,3°C 1030,6hPa 14,1°C 0,0km/h (0Bft) 0,0km/h 0,0l/m² 45,474klx 0,0min
11:10 13,7°C 57,3% 5,4°C 1030,6hPa 13,7°C 0,0km/h (0Bft) 0,0km/h 0,0l/m² 43,179klx 0,0min
11:05 13,4°C 59,1% 5,6°C 1030,6hPa 13,4°C 0,0km/h (0Bft) 0,0km/h 0,0l/m² 42,989klx 0,0min
11:00 13,3°C 60,2% 5,8°C 1030,7hPa 13,3°C 0,0km/h (0Bft) 0,0km/h 0,0l/m² 43,657klx 0,0min
10:55 12,7°C 62,7% 5,8°C 1030,7hPa 12,7°C 0,0km/h (0Bft) 0,0km/h 0,0l/m² 42,537klx 0,0min
10:50 11,7°C 65,5% 5,5°C 1030,8hPa 11,7°C 0,0km/h (0Bft) 0,0km/h 0,0l/m² 41,089klx 0,0min
10:45 11,5°C 65,3% 5,2°C 1030,8hPa 11,5°C 0,0km/h (0Bft) 0,0km/h 0,0l/m² 39,821klx 0,0min
10:40 11,4°C 65,4% 5,1°C 1030,8hPa 11,4°C 0,0km/h (0Bft) 0,0km/h 0,0l/m² 41,530klx 0,0min
10:35 10,4°C 71,2% 5,4°C 1030,8hPa 10,4°C 0,0km/h (0Bft) 0,0km/h 0,0l/m² 39,143klx 0,0min
10:30 10,3°C 71,6% 5,4°C 1030,8hPa 10,3°C 0,0km/h (0Bft) 0,0km/h 0,0l/m² 39,562klx 0,0min
10:25 10,1°C 72,4% 5,3°C 1030,8hPa 10,1°C 0,0km/h (0Bft) 0,0km/h 0,0l/m² 34,531klx 0,0min
10:20 9,1°C 76,1% 5,1°C 1030,9hPa 9,1°C 0,0km/h (0Bft) 0,0km/h 0,0l/m² 34,140klx 0,0min
10:15 8,8°C 80,4% 5,6°C 1030,8hPa 8,8°C 0,0km/h (0Bft) 0,0km/h 0,0l/m² 33,241klx 0,0min
10:10 8,4°C 82,0% 5,5°C 1030,8hPa 8,4°C 0,0km/h (0Bft) 0,0km/h 0,0l/m² 31,752klx 0,0min
10:05 7,9°C 83,2% 5,2°C 1030,8hPa 7,9°C 0,0km/h (0Bft) 0,0km/h 0,0l/m² 30,657klx 0,0min
10:00 7,5°C 83,6% 4,9°C 1030,8hPa 7,5°C 0,0km/h (0Bft) 0,0km/h 0,0l/m² 28,906klx 0,0min
09:55 6,7°C 86,5% 4,6°C 1030,8hPa 6,7°C 0,0km/h (0Bft) 0,0km/h 0,0l/m² 30,136klx 0,0min
09:50 6,1°C 88,7% 4,4°C 1030,8hPa 6,1°C 0,0km/h (0Bft) 0,0km/h 0,0l/m² 28,112klx 0,0min
09:45 5,6°C 90,2% 4,1°C 1030,8hPa 5,6°C 0,0km/h (0Bft) 0,0km/h 0,0l/m² 26,611klx 0,0min
09:40 5,0°C 91,5% 3,7°C 1030,9hPa 5,0°C 0,0km/h (0Bft) 0,0km/h 0,0l/m² 24,799klx 0,0min
09:35 4,7°C 92,3% 3,5°C 1030,9hPa 4,7°C 0,0km/h (0Bft) 0,0km/h 0,0l/m² 23,715klx 0,0min
09:30 4,0°C 92,7% 2,9°C 1030,9hPa 4,0°C 0,0km/h (0Bft) 0,0km/h 0,1l/m² 23,116klx 0,0min
09:25 3,9°C 92,9% 2,9°C 1030,8hPa 3,9°C 0,0km/h (0Bft) 0,0km/h 0,0l/m² 20,958klx 0,0min
09:20 3,3°C 93,2% 2,3°C 1030,8hPa 3,3°C 0,0km/h (0Bft) 0,0km/h 0,0l/m² 19,842klx 0,0min
09:15 3,0°C 93,4% 2,0°C 1030,8hPa 3,0°C 0,0km/h (0Bft) 0,0km/h 0,0l/m² 19,028klx 0,0min
09:10 2,6°C 93,6% 1,6°C 1030,8hPa 2,6°C 0,0km/h (0Bft) 0,0km/h 0,0l/m² 18,055klx 0,0min
09:05 2,3°C 93,7% 1,4°C 1030,8hPa 2,3°C 0,0km/h (0Bft) 0,0km/h 0,0l/m² 16,651klx 0,0min
09:00 2,1°C 93,8% 1,2°C 1030,8hPa 2,1°C 0,0km/h (0Bft) 0,0km/h 0,0l/m² 14,123klx 0,0min
08:55 1,8°C 93,9% 0,9°C 1030,8hPa 1,8°C 0,0km/h (0Bft) 0,0km/h 0,2l/m² 11,912klx 0,0min
08:50 1,6°C 93,9% 0,8°C 1030,8hPa 1,6°C 0,0km/h (0Bft) 0,0km/h 0,0l/m² 10,826klx 0,0min
08:45 1,0°C 94,0% 0,2°C 1030,7hPa 1,0°C 0,0km/h (0Bft) 0,0km/h 0,0l/m² 10,891klx 0,0min
08:40 0,9°C 94,1% 0,1°C 1030,7hPa 0,9°C 0,0km/h (0Bft) 0,0km/h 0,0l/m² 9,766klx 0,0min
08:35 0,6°C 94,1% -0,3°C 1030,7hPa 0,6°C 0,0km/h (0Bft) 0,0km/h 0,0l/m² 8,510klx 0,0min
08:30 0,3°C 94,2% -0,6°C 1030,7hPa 0,3°C 0,0km/h (0Bft) 0,0km/h 0,0l/m² 7,741klx 0,0min
08:25 0,1°C 94,2% -0,8°C 1030,7hPa 0,1°C 0,0km/h (0Bft) 0,0km/h 0,0l/m² 6,923klx 0,0min
08:20 -0,2°C 94,2% -0,9°C 1030,8hPa -0,2°C 0,0km/h (0Bft) 0,0km/h 0,0l/m² 6,224klx 0,0min
08:15 -0,3°C 94,2% -1,0°C 1030,7hPa -0,3°C 0,0km/h (0Bft) 0,0km/h 0,0l/m² 5,566klx 0,0min
08:10 -0,3°C 94,2% -1,0°C 1030,7hPa -0,3°C 0,0km/h (0Bft) 0,0km/h 0,0l/m² 4,485klx 0,0min
08:05 -0,4°C 94,3% -1,1°C 1030,7hPa -0,4°C 0,0km/h (0Bft) 0,0km/h 0,0l/m² 2,763klx 0,0min
08:00 -0,4°C 94,3% -1,1°C 1030,6hPa -0,4°C 0,0km/h (0Bft) 0,0km/h 0,0l/m² 2,513klx 0,0min
07:55 -0,5°C 94,3% -1,2°C 1030,6hPa -0,5°C 0,0km/h (0Bft) 0,0km/h 0,0l/m² 2,282klx 0,0min
07:50 -0,6°C 94,3% -1,3°C 1030,5hPa -0,6°C 0,0km/h (0Bft) 0,0km/h 0,0l/m² 2,037klx 0,0min
07:45 -0,6°C 94,3% -1,3°C 1030,5hPa -0,6°C 0,0km/h (0Bft) 0,0km/h 0,0l/m² 1,780klx 0,0min
07:40 -0,6°C 94,4% -1,3°C 1030,5hPa -0,6°C 0,0km/h (0Bft) 0,0km/h 0,0l/m² 1,518klx 0,0min
07:35 -0,7°C 94,4% -1,4°C 1030,5hPa -0,7°C 0,0km/h (0Bft) 0,0km/h 0,0l/m² 1,250klx 0,0min
07:30 -0,6°C 94,4% -1,3°C 1030,5hPa -0,6°C 0,0km/h (0Bft) 0,0km/h 0,0l/m² 0,991klx 0,0min
07:25 -0,6°C 94,4% -1,3°C 1030,5hPa -0,6°C 0,0km/h (0Bft) 0,0km/h 0,0l/m² 0,744klx 0,0min
07:20 -0,7°C 94,5% -1,4°C 1030,4hPa -0,7°C 0,0km/h (0Bft) 0,0km/h 0,0l/m² 0,524klx 0,0min
07:15 -0,6°C 94,5% -1,3°C 1030,4hPa -0,6°C 0,0km/h (0Bft) 0,0km/h 0,0l/m² 0,342klx 0,0min
07:10 -0,7°C 94,5% -1,4°C 1030,4hPa -0,7°C 0,0km/h (0Bft) 0,0km/h 0,0l/m² 0,204klx 0,0min
07:05 -0,8°C 94,5% -1,4°C 1030,4hPa -0,8°C 0,0km/h (0Bft) 0,0km/h 0,0l/m² 0,109klx 0,0min
07:00 -0,8°C 94,6% -1,5°C 1030,4hPa -0,8°C 0,0km/h (0Bft) 0,0km/h 0,0l/m² 0,052klx 0,0min
06:55 -0,8°C 94,6% -1,4°C 1030,4hPa -0,8°C 0,0km/h (0Bft) 0,0km/h 0,0l/m² 0,022klx 0,0min
06:50 -0,8°C 94,6% -1,5°C 1030,5hPa -0,8°C 0,0km/h (0Bft) 0,0km/h 0,0l/m² 0,009klx 0,0min
06:45 -0,8°C 94,6% -1,4°C 1030,5hPa -0,8°C 0,0km/h (0Bft) 0,0km/h 0,0l/m² 0,004klx 0,0min
06:40 -0,8°C 94,6% -1,5°C 1030,4hPa -0,8°C 0,0km/h (0Bft) 0,0km/h 0,0l/m² 0,002klx 0,0min
06:35 -0,9°C 94,7% -1,5°C 1030,5hPa -0,9°C 0,0km/h (0Bft) 0,0km/h 0,0l/m² 0,001klx 0,0min
06:30 -0,8°C 94,6% -1,4°C 1030,5hPa -0,8°C 0,0km/h (0Bft) 0,0km/h 0,0l/m² 0,001klx 0,0min
06:25 -0,8°C 94,6% -1,5°C 1030,5hPa -0,8°C 0,0km/h (0Bft) 0,0km/h 0,0l/m² 0,001klx 0,0min
06:20 -0,9°C 94,6% -1,5°C 1030,5hPa -0,9°C 0,0km/h (0Bft) 0,0km/h 0,0l/m² 0,000klx 0,0min
06:15 -0,8°C 94,6% -1,5°C 1030,6hPa -0,8°C 0,0km/h (0Bft) 0,0km/h 0,0l/m² 0,001klx 0,0min
06:10 -0,9°C 94,6% -1,5°C 1030,6hPa -0,9°C 0,0km/h (0Bft) 0,0km/h 0,0l/m² 0,001klx 0,0min
06:05 -0,8°C 94,5% -1,5°C 1030,6hPa -0,8°C 0,0km/h (0Bft) 0,0km/h 0,0l/m² 0,001klx 0,0min
06:00 -0,8°C 94,5% -1,5°C 1030,6hPa -0,8°C 0,0km/h (0Bft) 0,0km/h 0,0l/m² 0,001klx 0,0min
05:55 -0,8°C 94,5% -1,5°C 1030,6hPa -0,8°C 0,0km/h (0Bft) 0,0km/h 0,0l/m² 0,001klx 0,0min
05:50 -0,8°C 94,5% -1,5°C 1030,6hPa -0,8°C 0,0km/h (0Bft) 0,0km/h 0,0l/m² 0,001klx 0,0min
05:45 -0,7°C 94,4% -1,4°C 1030,6hPa -0,7°C 0,0km/h (0Bft) 0,0km/h 0,0l/m² 0,001klx 0,0min
05:40 -0,6°C 94,4% -1,3°C 1030,6hPa -0,6°C 0,0km/h (0Bft) 0,0km/h 0,0l/m² 0,000klx 0,0min
05:35 -0,5°C 94,4% -1,2°C 1030,6hPa -0,5°C 0,0km/h (0Bft) 0,0km/h 0,0l/m² 0,001klx 0,0min
05:30 -0,5°C 94,4% -1,1°C 1030,5hPa -0,5°C 0,0km/h (0Bft) 0,0km/h 0,0l/m² 0,001klx 0,0min
05:25 -0,5°C 94,4% -1,1°C 1030,5hPa -0,5°C 0,0km/h (0Bft) 0,0km/h 0,0l/m² 0,000klx 0,0min
05:20 -0,4°C 94,5% -1,1°C 1030,5hPa -0,4°C 0,0km/h (0Bft) 0,0km/h 0,0l/m² 0,000klx 0,0min
05:15 -0,4°C 94,5% -1,1°C 1030,5hPa -0,4°C 0,0km/h (0Bft) 0,0km/h 0,0l/m² 0,000klx 0,0min
05:10 -0,4°C 94,5% -1,1°C 1030,5hPa -0,4°C 0,0km/h (0Bft) 0,0km/h 0,0l/m² 0,001klx 0,0min
05:05 -0,5°C 94,5% -1,2°C 1030,6hPa -0,5°C 0,0km/h (0Bft) 0,0km/h 0,0l/m² 0,001klx 0,0min
05:00 -0,6°C 94,5% -1,3°C 1030,6hPa -0,6°C 0,0km/h (0Bft) 0,0km/h 0,0l/m² 0,001klx 0,0min
04:55 -0,7°C 94,5% -1,4°C 1030,6hPa -0,7°C 0,0km/h (0Bft) 0,0km/h 0,0l/m² 0,001klx 0,0min
04:50 -0,6°C 94,5% -1,3°C 1030,5hPa -0,6°C 0,0km/h (0Bft) 0,0km/h 0,0l/m² 0,000klx 0,0min
04:45 -0,7°C 94,5% -1,4°C 1030,5hPa -0,7°C 0,0km/h (0Bft) 0,0km/h 0,0l/m² 0,001klx 0,0min
04:40 -0,7°C 94,5% -1,4°C 1030,5hPa -0,7°C 0,0km/h (0Bft) 0,0km/h 0,0l/m² 0,001klx 0,0min
04:35 -0,7°C 94,4% -1,4°C 1030,5hPa -0,7°C 0,0km/h (0Bft) 0,0km/h 0,0l/m² 0,000klx 0,0min
04:30 -0,6°C 94,4% -1,3°C 1030,5hPa -0,6°C 0,0km/h (0Bft) 0,0km/h 0,0l/m² 0,001klx 0,0min
04:25 -0,5°C 94,4% -1,2°C 1030,5hPa -0,5°C 0,0km/h (0Bft) 0,0km/h 0,0l/m² 0,000klx 0,0min
04:20 -0,4°C 94,4% -1,1°C 1030,6hPa -0,4°C 0,0km/h (0Bft) 0,0km/h 0,0l/m² 0,001klx 0,0min
04:15 -0,4°C 94,4% -1,1°C 1030,5hPa -0,4°C 0,0km/h (0Bft) 0,0km/h 0,0l/m² 0,001klx 0,0min
04:10 -0,4°C 94,4% -1,1°C 1030,5hPa -0,4°C 0,0km/h (0Bft) 0,0km/h 0,0l/m² 0,000klx 0,0min
04:05 -0,2°C 94,4% -0,9°C 1030,5hPa -0,2°C 0,0km/h (0Bft) 0,0km/h 0,0l/m² 0,000klx 0,0min
04:00 -0,3°C 94,4% -1,0°C 1030,6hPa -0,3°C 0,0km/h (0Bft) 0,0km/h 0,0l/m² 0,000klx 0,0min
03:55 -0,4°C 94,4% -1,0°C 1030,6hPa -0,4°C 0,0km/h (0Bft) 0,0km/h 0,0l/m² 0,001klx 0,0min
03:50 -0,4°C 94,4% -1,1°C 1030,6hPa -0,4°C 0,0km/h (0Bft) 0,0km/h 0,0l/m² 0,001klx 0,0min
03:45 -0,5°C 94,4% -1,2°C 1030,6hPa -0,5°C 0,0km/h (0Bft) 0,0km/h 0,0l/m² 0,000klx 0,0min
03:40 -0,5°C 94,4% -1,2°C 1030,6hPa -0,5°C 0,0km/h (0Bft) 0,0km/h 0,0l/m² 0,001klx 0,0min
03:35 -0,6°C 94,4% -1,3°C 1030,6hPa -0,6°C 0,0km/h (0Bft) 0,0km/h 0,0l/m² 0,001klx 0,0min
03:30 -0,7°C 94,4% -1,4°C 1030,6hPa -0,7°C 0,0km/h (0Bft) 0,0km/h 0,0l/m² 0,000klx 0,0min
03:25 -0,7°C 94,4% -1,4°C 1030,6hPa -0,7°C 0,0km/h (0Bft) 0,0km/h 0,0l/m² 0,001klx 0,0min
03:20 -0,6°C 94,3% -1,3°C 1030,7hPa -0,6°C 0,0km/h (0Bft) 0,0km/h 0,0l/m² 0,001klx 0,0min
03:15 -0,5°C 94,3% -1,2°C 1030,7hPa -0,5°C 0,0km/h (0Bft) 0,0km/h 0,0l/m² 0,001klx 0,0min
03:10 -0,5°C 94,3% -1,2°C 1030,8hPa -0,5°C 0,0km/h (0Bft) 0,0km/h 0,0l/m² 0,000klx 0,0min
03:05 -0,4°C 94,3% -1,1°C 1030,8hPa -0,4°C 0,0km/h (0Bft) 0,0km/h 0,0l/m² 0,000klx 0,0min
03:00 -0,4°C 94,3% -1,1°C 1030,8hPa -0,4°C 0,0km/h (0Bft) 0,0km/h 0,0l/m² 0,001klx 0,0min
02:55 -0,3°C 94,3% -1,0°C 1030,8hPa -0,3°C 0,0km/h (0Bft) 0,0km/h 0,0l/m² 0,001klx 0,0min
02:50 -0,4°C 94,3% -1,1°C 1030,8hPa -0,4°C 0,0km/h (0Bft) 0,0km/h 0,0l/m² 0,000klx 0,0min
02:45 -0,3°C 94,3% -1,0°C 1030,9hPa -0,3°C 0,0km/h (0Bft) 0,0km/h 0,0l/m² 0,001klx 0,0min
02:40 -0,3°C 94,3% -1,0°C 1030,9hPa -0,3°C 0,0km/h (0Bft) 0,0km/h 0,0l/m² 0,001klx 0,0min
02:35 -0,2°C 94,2% -0,9°C 1030,9hPa -0,2°C 0,0km/h (0Bft) 0,0km/h 0,0l/m² 0,001klx 0,0min
02:30 -0,1°C 94,2% -0,8°C 1030,9hPa -0,1°C 0,0km/h (0Bft) 0,0km/h 0,0l/m² 0,000klx 0,0min
02:25 -0,1°C 94,2% -0,8°C 1030,9hPa -0,1°C 0,0km/h (0Bft) 0,0km/h 0,0l/m² 0,001klx 0,0min
02:20 -0,1°C 94,2% -0,8°C 1031,0hPa -0,1°C 0,0km/h (0Bft) 0,0km/h 0,0l/m² 0,001klx 0,0min
02:15 -0,1°C 94,2% -0,8°C 1030,9hPa -0,1°C 0,0km/h (0Bft) 0,0km/h 0,0l/m² 0,001klx 0,0min
02:10 -0,1°C 94,1% -0,8°C 1030,9hPa -0,1°C 0,0km/h (0Bft) 0,0km/h 0,0l/m² 0,000klx 0,0min
02:05 0,1°C 94,1% -0,7°C 1030,9hPa 0,1°C 0,0km/h (0Bft) 0,0km/h 0,0l/m² 0,001klx 0,0min
02:00 0,2°C 94,1% -0,7°C 1030,9hPa 0,2°C 0,0km/h (0Bft) 0,0km/h 0,0l/m² 0,000klx 0,0min
01:55 0,2°C 94,0% -0,6°C 1030,9hPa 0,2°C 0,0km/h (0Bft) 0,0km/h 0,0l/m² 0,000klx 0,0min
01:50 0,4°C 94,0% -0,5°C 1030,9hPa 0,4°C 0,0km/h (0Bft) 0,0km/h 0,0l/m² 0,000klx 0,0min
01:45 0,6°C 94,0% -0,2°C 1030,9hPa 0,6°C 0,0km/h (0Bft) 0,0km/h 0,0l/m² 0,001klx 0,0min
01:40 0,7°C 93,9% -0,1°C 1030,9hPa 0,7°C 0,0km/h (0Bft) 0,0km/h 0,0l/m² 0,001klx 0,0min
01:35 0,6°C 93,9% -0,2°C 1030,9hPa 0,6°C 0,0km/h (0Bft) 0,0km/h 0,0l/m² 0,000klx 0,0min
01:30 0,6°C 93,9% -0,3°C 1030,9hPa 0,6°C 0,0km/h (0Bft) 0,0km/h 0,0l/m² 0,001klx 0,0min
01:25 0,6°C 93,9% -0,2°C 1030,9hPa 0,6°C 0,0km/h (0Bft) 0,0km/h 0,0l/m² 0,001klx 0,0min
01:20 0,7°C 93,9% -0,2°C 1030,9hPa 0,7°C 0,0km/h (0Bft) 0,0km/h 0,0l/m² 0,001klx 0,0min
01:15 0,6°C 93,9% -0,3°C 1031,0hPa 0,6°C 0,0km/h (0Bft) 0,0km/h 0,0l/m² 0,000klx 0,0min
01:10 0,6°C 93,8% -0,2°C 1031,0hPa 0,6°C 0,0km/h (0Bft) 0,0km/h 0,0l/m² 0,001klx 0,0min
01:05 0,9°C 93,8% 0,0°C 1031,0hPa 0,9°C 0,0km/h (0Bft) 0,0km/h 0,0l/m² 0,001klx 0,0min
01:00 0,9°C 93,8% 0,0°C 1031,0hPa 0,9°C 0,0km/h (0Bft) 0,0km/h 0,0l/m² 0,000klx 0,0min
00:55 0,7°C 93,8% -0,2°C 1030,9hPa 0,7°C 0,0km/h (0Bft) 0,0km/h 0,0l/m² 0,001klx 0,0min
00:50 0,9°C 93,8% 0,0°C 1030,9hPa 0,9°C 0,0km/h (0Bft) 0,0km/h 0,0l/m² 0,001klx 0,0min
00:45 0,9°C 93,7% 0,0°C 1030,9hPa 0,9°C 0,0km/h (0Bft) 0,0km/h 0,0l/m² 0,000klx 0,0min
00:40 1,0°C 93,7% 0,1°C 1030,9hPa 1,0°C 0,0km/h (0Bft) 0,0km/h 0,0l/m² 0,000klx 0,0min
00:35 1,1°C 93,7% 0,2°C 1030,8hPa 1,1°C 0,0km/h (0Bft) 0,0km/h 0,0l/m² 0,001klx 0,0min
00:30 1,2°C 93,6% 0,3°C 1030,9hPa 1,2°C 0,0km/h (0Bft) 0,0km/h 0,0l/m² 0,000klx 0,0min
00:25 1,4°C 93,6% 0,5°C 1030,8hPa 1,4°C 0,0km/h (0Bft) 0,0km/h 0,0l/m² 0,000klx 0,0min
00:20 1,3°C 93,6% 0,3°C 1030,8hPa 1,3°C 0,0km/h (0Bft) 0,0km/h 0,0l/m² 0,000klx 0,0min
00:15 1,2°C 93,6% 0,3°C 1030,9hPa 1,2°C 0,0km/h (0Bft) 0,0km/h 0,0l/m² 0,000klx 0,0min
00:10 1,4°C 93,6% 0,4°C 1030,8hPa 1,4°C 0,0km/h (0Bft) 0,0km/h 0,0l/m² 0,000klx 0,0min
00:05 1,2°C 93,6% 0,3°C 1030,8hPa 1,2°C 0,0km/h (0Bft) 0,0km/h 0,0l/m² 0,000klx 0,0min
00:00 1,2°C 93,6% 0,3°C 1030,8hPa 1,2°C 0,0km/h (0Bft) 0,0km/h 0,0l/m² 0,001klx 0,0min

Aktuelle Wetterdaten

02.03.2021 11:35 Uhr